createdAt,value
2022-10-08T07:31:40.281Z,96450.78
2022-10-08T07:34:11.991Z,96448.47
2022-10-08T07:36:49.120Z,96449.69
2022-10-08T07:39:24.395Z,96450.38
2022-10-08T07:41:59.285Z,96448.59
2022-10-08T07:44:30.488Z,96455.66
2022-10-08T07:47:04.620Z,96449.81
2022-10-08T07:49:32.566Z,96440.19
2022-10-08T07:52:01.455Z,96442.47
2022-10-08T07:54:29.884Z,96458.91
2022-10-08T07:56:58.473Z,96456.69
2022-10-08T07:59:32.771Z,96458.53
2022-10-08T08:02:02.597Z,96385.19
2022-10-08T08:04:30.844Z,96465.69
2022-10-08T08:07:03.669Z,96459.56
2022-10-08T08:09:34.109Z,96465.50
2022-10-08T08:12:05.103Z,96468.81
2022-10-08T08:14:37.718Z,96464.13
2022-10-08T08:17:10.217Z,96462.47
2022-10-08T08:19:50.976Z,96473.34
2022-10-08T08:22:21.715Z,96468.94
2022-10-08T08:25:08.276Z,96470.97
2022-10-08T08:27:40.688Z,96472.34
2022-10-08T08:30:11.249Z,96441.59
2022-10-08T08:32:55.427Z,96464.94
2022-10-08T08:35:28.769Z,96462.31
2022-10-08T08:38:07.663Z,96468.31
2022-10-08T08:40:42.370Z,96464.22
2022-10-08T08:43:15.561Z,96461.84
2022-10-08T08:45:52.497Z,96466.78
2022-10-08T08:48:28.927Z,96459.97
2022-10-08T08:51:14.010Z,96462.72
2022-10-08T08:54:03.139Z,96449.59
2022-10-08T08:56:35.639Z,96457.09
2022-10-08T08:59:32.272Z,96461.63
2022-10-08T09:02:28.230Z,96452.25
2022-10-08T09:05:21.000Z,96460.75
2022-10-08T09:08:04.316Z,96456.47
2022-10-08T09:10:42.450Z,96460.97
2022-10-08T09:13:22.736Z,96446.41
2022-10-08T09:15:58.306Z,96453.84
2022-10-08T09:22:02.477Z,96450.69
2022-10-08T09:24:42.256Z,96454.75
2022-10-08T09:27:17.205Z,96394.06
2022-10-08T09:30:03.851Z,96465.44
2022-10-08T09:32:42.800Z,96471.03
2022-10-08T09:35:21.711Z,96463.19
2022-10-08T09:37:56.725Z,96475.19
2022-10-08T09:40:33.117Z,96482.03
2022-10-08T09:43:20.130Z,96471.28
2022-10-08T09:45:54.938Z,96471.44
2022-10-08T09:48:33.939Z,96471.72
2022-10-08T09:51:13.004Z,96477.63
2022-10-08T09:53:57.649Z,96473.75
2022-10-08T09:56:36.575Z,96465.31
2022-10-08T09:59:27.391Z,96470.28
2022-10-08T10:02:14.707Z,96470.09
2022-10-08T10:04:58.370Z,96464.28
2022-10-08T10:07:38.742Z,96443.69
2022-10-08T10:10:19.058Z,96465.41
2022-10-08T10:13:02.226Z,96463.50
2022-10-08T10:15:38.720Z,96460.00
2022-10-08T10:18:15.830Z,96433.28
2022-10-08T10:21:00.842Z,96450.41
2022-10-08T10:23:34.601Z,96408.72
2022-10-08T10:26:15.828Z,96437.81
2022-10-08T10:28:55.403Z,96444.13
2022-10-08T10:31:35.680Z,96440.78
2022-10-08T10:34:15.832Z,96447.59
2022-10-08T10:36:54.552Z,96437.16
2022-10-08T10:39:32.859Z,96422.00
2022-10-08T10:42:15.351Z,96425.59
2022-10-08T10:44:58.278Z,96418.25
2022-10-08T10:47:37.843Z,96421.41
2022-10-08T10:50:18.206Z,96419.53
2022-10-08T10:52:55.035Z,96412.34
2022-10-08T10:58:40.757Z,96389.19
2022-10-08T11:01:24.716Z,96403.78
2022-10-08T11:04:26.812Z,96399.28
2022-10-08T11:07:13.873Z,96384.06
2022-10-08T11:09:45.668Z,96397.94
2022-10-08T11:12:37.980Z,96380.13
2022-10-08T11:15:46.573Z,96388.19
2022-10-08T11:18:28.587Z,96324.63
2022-10-08T11:21:18.621Z,96388.13
2022-10-08T11:24:32.750Z,96392.16
2022-10-08T11:27:52.989Z,96374.50
2022-10-08T11:30:40.713Z,96388.59
2022-10-08T11:33:22.183Z,96393.84
2022-10-08T11:36:47.261Z,96393.94
2022-10-08T11:39:21.793Z,96385.19
2022-10-08T11:41:55.816Z,96377.41
2022-10-08T11:44:32.073Z,96376.84
2022-10-08T11:47:47.481Z,96386.56
2022-10-08T11:50:32.821Z,96370.81
2022-10-08T11:53:17.129Z,96378.56
2022-10-08T11:55:53.226Z,96376.47
2022-10-08T12:02:57.701Z,96363.13
2022-10-08T12:05:37.656Z,96364.44
2022-10-08T12:08:07.438Z,96362.31
2022-10-08T12:10:39.401Z,96361.03
2022-10-08T12:13:29.783Z,96361.84
2022-10-08T12:16:07.235Z,96356.59
2022-10-08T12:18:55.831Z,96352.91
2022-10-08T12:22:02.916Z,96351.31
2022-10-08T12:24:57.009Z,96352.03
2022-10-08T12:27:40.644Z,96354.31
2022-10-08T12:30:12.593Z,96355.25
2022-10-08T12:32:57.237Z,96344.53
2022-10-08T12:35:31.051Z,96359.19
2022-10-08T12:38:27.656Z,96362.78
2022-10-08T12:41:04.455Z,96360.84
2022-10-08T12:43:43.080Z,96363.81
2022-10-08T12:46:22.814Z,96359.00
2022-10-08T12:48:54.604Z,96362.81
2022-10-08T12:51:27.693Z,96354.16
2022-10-08T12:53:58.827Z,96350.16
2022-10-08T13:01:00.529Z,96342.47
2022-10-08T13:03:29.958Z,96340.19
2022-10-08T13:05:59.436Z,96336.81
2022-10-08T13:08:35.982Z,96313.00
2022-10-08T13:11:09.841Z,96336.22
2022-10-08T13:13:49.835Z,96350.16
2022-10-08T13:16:26.164Z,96351.25
2022-10-08T13:18:58.218Z,96340.75
2022-10-08T13:21:37.812Z,96345.78
2022-10-08T13:24:42.395Z,96347.09
2022-10-08T13:27:32.094Z,96344.59
2022-10-08T13:30:04.750Z,96341.63
2022-10-08T13:32:36.210Z,96334.63
2022-10-08T13:35:09.378Z,96338.19
2022-10-08T13:37:46.158Z,96350.75
2022-10-08T13:40:22.268Z,96335.34
2022-10-08T13:42:55.812Z,96331.91
2022-10-08T13:45:27.001Z,96349.19
2022-10-08T13:48:00.986Z,96361.13
2022-10-08T13:50:35.999Z,96349.75
2022-10-08T13:53:07.954Z,96349.72
2022-10-08T13:55:37.610Z,96343.28
2022-10-08T13:58:09.213Z,96345.13
2022-10-08T14:00:40.536Z,96339.44
2022-10-08T14:03:11.153Z,96343.91
2022-10-08T14:05:41.847Z,96339.84
2022-10-08T14:08:16.729Z,96348.47
2022-10-08T14:10:47.807Z,96353.97
2022-10-08T14:13:23.263Z,96356.09
2022-10-08T14:15:55.073Z,96358.53
2022-10-08T14:18:25.035Z,96349.03
2022-10-08T14:20:57.008Z,96365.44
2022-10-08T14:23:33.978Z,96361.09
2022-10-08T14:26:05.610Z,96362.00
2022-10-08T14:28:46.683Z,96352.97
2022-10-08T14:31:17.944Z,96353.53
2022-10-08T14:33:51.583Z,96354.34
2022-10-08T14:36:34.545Z,96348.50
2022-10-08T14:39:06.867Z,96345.69
2022-10-08T14:41:37.053Z,96347.88
2022-10-08T14:44:08.896Z,96344.84
2022-10-08T14:46:42.244Z,96339.94
2022-10-08T14:49:22.059Z,96338.72
2022-10-08T14:52:22.920Z,96332.63
2022-10-08T14:55:27.059Z,96321.72
2022-10-08T14:58:24.032Z,96342.84
2022-10-08T15:01:40.024Z,96337.16
2022-10-08T15:04:31.531Z,96338.03
2022-10-08T15:07:01.650Z,96335.28
2022-10-08T15:09:31.637Z,96334.56
2022-10-08T15:12:01.244Z,96338.03
2022-10-08T15:14:35.675Z,96333.69
2022-10-08T15:17:09.582Z,96333.34
2022-10-08T15:19:39.305Z,96333.06
2022-10-08T15:22:09.036Z,96335.72
2022-10-08T15:24:38.839Z,96341.69
2022-10-08T15:27:08.912Z,96346.53
2022-10-08T15:29:38.633Z,96343.88
2022-10-08T15:32:10.312Z,96345.13
2022-10-08T15:34:40.099Z,96331.84
2022-10-08T15:37:10.315Z,96341.91
2022-10-08T15:39:39.083Z,96344.00
2022-10-08T15:42:07.791Z,96347.94
2022-10-08T15:44:36.401Z,96355.31
2022-10-08T15:47:07.188Z,96356.13
2022-10-08T15:49:38.999Z,96352.84
2022-10-08T15:52:08.955Z,96361.66
2022-10-08T15:54:38.085Z,96353.78
2022-10-08T15:57:06.635Z,96362.53
2022-10-08T15:59:35.284Z,96368.34
2022-10-08T16:02:04.154Z,96366.19
2022-10-08T16:04:33.283Z,96370.22
2022-10-08T16:07:03.964Z,96379.25
2022-10-08T16:09:33.099Z,96377.47
2022-10-08T16:12:02.628Z,96380.00
2022-10-08T16:14:32.284Z,96384.16
2022-10-08T16:17:01.952Z,96383.28
2022-10-08T16:19:31.932Z,96379.00
2022-10-08T16:22:04.524Z,96379.25
2022-10-08T16:24:34.675Z,96384.00
2022-10-08T16:27:04.612Z,96382.34
2022-10-08T16:29:34.723Z,96385.84
2022-10-08T16:32:04.625Z,96396.06
2022-10-08T16:34:33.744Z,96400.22
2022-10-08T16:37:05.242Z,96404.66
2022-10-08T16:39:33.869Z,96406.13
2022-10-08T16:42:03.268Z,96412.78
2022-10-08T16:44:32.128Z,96416.63
2022-10-08T16:47:05.924Z,96418.25
2022-10-08T16:49:34.848Z,96426.16
2022-10-08T16:52:08.575Z,96432.16
2022-10-08T16:54:37.361Z,96432.31
2022-10-08T16:57:05.963Z,96438.97
2022-10-08T16:59:34.658Z,96438.97
2022-10-08T17:02:03.813Z,96444.13
2022-10-08T17:04:39.507Z,96448.63
2022-10-08T17:07:11.256Z,96459.00
2022-10-08T17:09:40.276Z,96464.47
2022-10-08T17:12:09.057Z,96469.66
2022-10-08T17:14:38.557Z,96473.06
2022-10-08T17:17:07.337Z,96468.03
2022-10-08T17:19:36.043Z,96473.88
2022-10-08T17:22:04.389Z,96472.84
2022-10-08T17:24:40.183Z,96485.13
2022-10-08T17:27:11.911Z,96479.75
2022-10-08T17:29:40.764Z,96480.03
2022-10-08T17:32:11.637Z,96487.72
2022-10-08T17:34:40.168Z,96480.78
2022-10-08T17:37:08.694Z,96488.44
2022-10-08T17:39:39.263Z,96486.94
2022-10-08T17:42:08.604Z,96486.56
2022-10-08T17:44:37.353Z,96487.28
2022-10-08T17:47:06.583Z,96488.91
2022-10-08T17:49:35.299Z,96487.53
2022-10-08T17:52:03.701Z,96499.03
2022-10-08T17:54:32.215Z,96495.66
2022-10-08T17:57:02.368Z,96499.72
2022-10-08T17:59:30.963Z,96510.34
2022-10-08T18:02:00.845Z,96504.13
2022-10-08T18:04:30.381Z,96506.31
2022-10-08T18:07:03.243Z,96519.94
2022-10-08T18:09:32.329Z,96523.88
2022-10-08T18:12:02.398Z,96516.22
2022-10-08T18:14:31.175Z,96512.16
2022-10-08T18:17:00.709Z,96506.91
2022-10-08T18:19:29.549Z,96518.75
2022-10-08T18:21:58.333Z,96519.84
2022-10-08T18:24:27.284Z,96520.94
2022-10-08T18:26:59.601Z,96521.63
2022-10-08T18:29:30.527Z,96528.94
2022-10-08T18:31:59.782Z,96520.91
2022-10-08T18:34:28.146Z,96535.34
2022-10-08T18:36:56.688Z,96532.47
2022-10-08T18:39:28.492Z,96540.91
2022-10-08T18:41:57.683Z,96538.19
2022-10-08T18:44:28.933Z,96519.59
2022-10-08T18:47:01.735Z,96537.00
2022-10-08T18:49:34.687Z,96539.03
2022-10-08T18:52:03.429Z,96537.69
2022-10-08T18:54:32.285Z,96534.94
2022-10-08T18:57:01.088Z,96549.53
2022-10-08T18:59:32.527Z,96550.75
2022-10-08T19:02:01.789Z,96556.06
2022-10-08T19:04:35.088Z,96549.91
2022-10-08T19:07:04.076Z,96550.75
2022-10-08T19:09:33.441Z,96549.25
2022-10-08T19:12:02.511Z,96562.31
2022-10-08T19:14:33.573Z,96569.09
2022-10-08T19:17:05.103Z,96576.84
2022-10-08T19:19:34.083Z,96585.84
2022-10-08T19:22:03.273Z,96587.75
2022-10-08T19:24:31.920Z,96595.50
2022-10-08T19:27:00.801Z,96601.50
2022-10-08T19:29:34.416Z,96601.59
2022-10-08T19:32:04.002Z,96601.19
2022-10-08T19:34:33.583Z,96611.53
2022-10-08T19:37:02.402Z,96614.94
2022-10-08T19:39:33.870Z,96621.22
2022-10-08T19:42:02.563Z,96627.59
2022-10-08T19:44:32.671Z,96631.00
2022-10-08T19:47:03.879Z,96641.88
2022-10-08T19:49:32.813Z,96651.53
2022-10-08T19:52:01.302Z,96649.72
2022-10-08T19:54:31.411Z,96650.84
2022-10-08T19:56:59.995Z,96641.44
2022-10-08T19:59:28.733Z,96649.75
2022-10-08T20:01:59.526Z,96668.22
2022-10-08T20:04:28.717Z,96666.84
2022-10-08T20:06:57.462Z,96675.56
2022-10-08T20:09:27.643Z,96672.66
2022-10-08T20:11:57.286Z,96673.88
2022-10-08T20:14:26.253Z,96673.59
2022-10-08T20:16:55.266Z,96693.22
2022-10-08T20:19:26.045Z,96698.66
2022-10-08T20:21:56.170Z,96689.94
2022-10-08T20:24:24.853Z,96698.78
2022-10-08T20:26:55.194Z,96696.06
2022-10-08T20:29:28.721Z,96693.22
2022-10-08T20:31:59.927Z,96694.69
2022-10-08T20:34:31.622Z,96695.66
2022-10-08T20:37:02.985Z,96696.59
2022-10-08T20:39:33.310Z,96702.44
2022-10-08T20:42:01.911Z,96704.06
2022-10-08T20:44:31.069Z,96708.16
2022-10-08T20:47:00.749Z,96707.59
2022-10-08T20:49:36.205Z,96729.38
2022-10-08T20:52:05.542Z,96725.25
2022-10-08T20:54:34.508Z,96726.88
2022-10-08T20:57:03.266Z,96719.25
2022-10-08T20:59:34.486Z,96716.09
2022-10-08T21:02:04.145Z,96718.69
2022-10-08T21:04:34.383Z,96715.03
2022-10-08T21:07:02.865Z,96712.47
2022-10-08T21:09:31.662Z,96715.97
2022-10-08T21:11:59.903Z,96729.84
2022-10-08T21:14:29.903Z,96731.88
2022-10-08T21:16:58.445Z,96738.41
2022-10-08T21:19:27.309Z,96728.78
2022-10-08T21:21:58.040Z,96726.88
2022-10-08T21:24:27.192Z,96740.75
2022-10-08T21:26:55.973Z,96743.94
2022-10-08T21:29:24.820Z,96736.94
2022-10-08T21:31:53.582Z,96728.00
2022-10-08T21:34:22.511Z,96733.72
2022-10-08T21:36:51.412Z,96740.09
2022-10-08T21:39:21.863Z,96740.66
2022-10-08T21:41:52.642Z,96733.88
2022-10-08T21:44:21.903Z,96733.59
2022-10-08T21:46:50.918Z,96740.16
2022-10-08T21:49:21.269Z,96749.22
2022-10-08T21:51:50.690Z,96753.44
2022-10-08T21:54:20.455Z,96756.13
2022-10-08T21:56:49.780Z,96756.28
2022-10-08T21:59:18.249Z,96744.47
2022-10-08T22:01:48.603Z,96753.00
2022-10-08T22:04:19.151Z,96748.94
2022-10-08T22:06:49.121Z,96756.75
2022-10-08T22:09:22.962Z,96753.81
2022-10-08T22:11:57.616Z,96766.25
2022-10-08T22:14:44.761Z,96758.09
2022-10-08T22:17:13.283Z,96775.69
2022-10-08T22:19:42.009Z,96764.47
2022-10-08T22:22:10.270Z,96767.97
2022-10-08T22:24:39.822Z,96770.41
2022-10-08T22:27:08.162Z,96773.56
2022-10-08T22:29:36.892Z,96772.50
2022-10-08T22:32:06.671Z,96760.91
2022-10-08T22:34:36.772Z,96762.56
2022-10-08T22:37:07.458Z,96764.75
2022-10-08T22:39:38.205Z,96764.16
2022-10-08T22:42:08.729Z,96773.19
2022-10-08T22:44:40.044Z,96775.91
2022-10-08T22:47:12.095Z,96786.09
2022-10-08T22:49:41.616Z,96786.72
2022-10-08T22:52:11.245Z,96778.19
2022-10-08T22:54:40.520Z,96780.50
2022-10-08T22:57:11.006Z,96793.69
2022-10-08T22:59:40.529Z,96780.09
2022-10-08T23:02:09.912Z,96777.00
2022-10-08T23:04:38.647Z,96802.19
2022-10-08T23:07:07.523Z,96805.47
2022-10-08T23:09:36.296Z,96811.69
2022-10-08T23:12:05.339Z,96805.25
2022-10-08T23:14:35.631Z,96801.28
2022-10-08T23:17:04.092Z,96806.06
2022-10-08T23:19:32.701Z,96822.97
2022-10-08T23:22:01.841Z,96818.50
2022-10-08T23:24:31.228Z,96815.00
2022-10-08T23:27:00.222Z,96799.66
2022-10-08T23:29:29.047Z,96792.63
2022-10-08T23:31:59.733Z,96803.53
2022-10-08T23:34:28.214Z,96802.94
2022-10-08T23:36:57.049Z,96823.56
2022-10-08T23:39:26.164Z,96828.47
2022-10-08T23:41:54.471Z,96827.66
2022-10-08T23:44:23.858Z,96794.44
2022-10-08T23:46:52.876Z,96804.94
2022-10-08T23:49:22.680Z,96812.69
2022-10-08T23:51:51.888Z,96809.75
2022-10-08T23:54:20.435Z,96819.25
2022-10-08T23:56:49.129Z,96814.47
2022-10-08T23:59:17.971Z,96808.16
